Time;durP1;ratioP1;P1;durP2;ratioP2;P2;SDS_P1;SDS_P2;PMS_P1;PMS_P2;Temp;Humidity;BMP_temperature;BMP_pressure;BME280_temperature;BME280_humidity;BME280_pressure;Samples;Min_cycle;Max_cycle;Signal;HPM_P1;HPM_P2
2023/10/12 00:04:11;;;;;;;7.75;3.08;;;22.10;99.20;;;;;;10118079;28;20077;-72
2023/10/12 00:09:10;;;;;;;5.85;3.70;;;22.00;99.40;;;;;;10126169;28;20045;-74
2023/10/12 00:14:06;;;;;;;6.68;3.15;;;22.00;99.40;;;;;;10121971;28;20020;-73
2023/10/12 00:18:57;;;;;;;10.25;3.55;;;22.00;99.40;;;;;;10116352;28;20040;-73
2023/10/12 00:23:47;;;;;;;7.82;2.80;;;22.00;99.40;;;;;;10120349;28;20025;-74
2023/10/12 00:28:38;;;;;;;6.28;3.22;;;21.90;99.40;;;;;;10120667;28;20068;-74
2023/10/12 00:33:29;;;;;;;7.13;2.88;;;21.90;99.40;;;;;;10120812;28;20563;-74
2023/10/12 00:38:23;;;;;;;6.32;2.92;;;21.90;99.50;;;;;;10118056;28;20094;-72
2023/10/12 00:43:15;;;;;;;7.03;3.22;;;21.90;99.50;;;;;;10122009;28;20048;-74
2023/10/12 00:48:08;;;;;;;5.30;2.90;;;21.80;99.40;;;;;;10134267;28;20037;-74
2023/10/12 00:53:14;;;;;;;6.03;2.97;;;21.80;99.60;;;;;;10122219;28;20032;-73
2023/10/12 00:58:08;;;;;;;7.18;2.75;;;21.80;99.50;;;;;;10115037;28;20522;-73
2023/10/12 01:03:27;;;;;;;5.75;2.53;;;21.70;99.60;;;;;;10114619;28;20032;-73
2023/10/12 01:08:19;;;;;;;5.90;2.92;;;21.70;99.60;;;;;;10117546;28;20045;-73
2023/10/12 01:13:09;;;;;;;7.75;2.90;;;21.70;99.90;;;;;;10123145;28;20031;-73
2023/10/12 01:18:00;;;;;;;5.85;2.45;;;21.60;99.60;;;;;;10126353;28;20557;-73
2023/10/12 01:22:51;;;;;;;7.85;3.25;;;21.60;99.70;;;;;;10127974;28;20028;-73
2023/10/12 01:27:43;;;;;;;7.78;3.15;;;21.60;99.60;;;;;;10126834;28;20037;-72
2023/10/12 01:32:37;;;;;;;8.75;3.33;;;21.60;99.70;;;;;;10103820;22;20057;-76
2023/10/12 01:37:28;;;;;;;6.05;3.50;;;21.60;99.70;;;;;;10094366;28;20423;-77
2023/10/12 01:42:21;;;;;;;6.50;2.75;;;21.50;99.70;;;;;;10097274;28;20116;-77
2023/10/12 01:47:13;;;;;;;7.25;3.33;;;21.50;99.70;;;;;;10096285;28;20492;-77
2023/10/12 01:52:03;;;;;;;4.95;2.95;;;21.50;99.80;;;;;;10097338;28;20020;-77
2023/10/12 01:56:55;;;;;;;6.43;3.30;;;21.40;99.80;;;;;;10081270;28;20033;-78
2023/10/12 02:01:57;;;;;;;5.32;3.10;;;21.40;99.90;;;;;;10094285;28;20035;-76
2023/10/12 02:06:47;;;;;;;5.00;2.63;;;21.40;99.80;;;;;;10096124;28;20068;-76
2023/10/12 02:11:45;;;;;;;5.32;3.67;;;21.40;99.80;;;;;;10095048;28;20080;-77
2023/10/12 02:16:39;;;;;;;8.02;2.83;;;21.50;99.80;;;;;;10096175;28;20490;-79
2023/10/12 02:21:33;;;;;;;5.53;2.60;;;21.40;99.70;;;;;;10095634;28;20483;-78
2023/10/12 02:36:40;;;;;;;5.10;2.60;;;21.40;99.70;;;;;;10093891;28;20060;-77
2023/10/12 02:41:34;;;;;;;7.70;2.70;;;21.40;99.70;;;;;;10095038;28;20521;-78
2023/10/12 02:46:25;;;;;;;5.00;4.15;;;21.30;99.60;;;;;;10092752;28;20033;-77
2023/10/12 02:51:17;;;;;;;6.18;2.70;;;21.40;99.60;;;;;;10092015;28;20033;-78
2023/10/12 02:56:07;;;;;;;7.13;3.08;;;21.20;99.60;;;;;;10077469;28;20383;-78
2023/10/12 03:01:21;;;;;;;3.22;2.28;;;21.30;99.60;;;;;;10089155;28;20021;-77
2023/10/12 03:06:12;;;;;;;6.07;2.55;;;21.30;99.50;;;;;;10074792;28;20479;-77
2023/10/12 03:11:11;;;;;;;4.30;2.42;;;21.30;99.50;;;;;;10078786;28;20021;-77
2023/10/12 03:16:24;;;;;;;7.60;2.85;;;21.20;99.60;;;;;;10095883;28;20060;-76
2023/10/12 03:21:15;;;;;;;6.45;3.42;;;21.20;99.50;;;;;;10101234;28;20512;-78
2023/10/12 03:26:24;;;;;;;6.03;2.90;;;21.20;99.60;;;;;;10099333;28;20035;-77
2023/10/12 03:31:23;;;;;;;5.45;2.10;;;21.20;99.50;;;;;;10103448;28;20094;-79
2023/10/12 03:36:23;;;;;;;5.30;2.33;;;21.10;99.60;;;;;;10085336;28;20112;-78
2023/10/12 03:46:29;;;;;;;4.30;2.83;;;21.10;99.60;;;;;;10102479;28;20064;-76
2023/10/12 03:56:22;;;;;;;12.45;4.20;;;21.00;99.70;;;;;;10100854;28;20072;-76
2023/10/12 04:01:24;;;;;;;6.32;3.00;;;21.00;99.70;;;;;;10088346;28;20025;-78
2023/10/12 04:06:15;;;;;;;5.35;2.95;;;20.90;99.80;;;;;;10100073;28;20032;-78
2023/10/12 04:16:27;;;;;;;4.22;2.28;;;20.90;99.70;;;;;;10100620;28;20032;-79
2023/10/12 04:21:22;;;;;;;4.30;2.17;;;20.90;99.70;;;;;;10092615;28;20502;-77
2023/10/12 04:36:13;;;;;;;6.30;2.38;;;20.90;99.70;;;;;;10097483;28;20127;-76
2023/10/12 04:51:07;;;;;;;6.78;3.20;;;20.90;99.70;;;;;;10098406;28;20416;-79
2023/10/12 04:55:59;;;;;;;4.72;2.47;;;21.00;99.60;;;;;;10098359;28;20057;-76
2023/10/12 05:01:12;;;;;;;5.63;2.58;;;21.00;99.60;;;;;;10097076;28;20045;-78
2023/10/12 05:06:09;;;;;;;6.45;2.47;;;20.90;99.60;;;;;;10098056;28;20418;-77
2023/10/12 05:10:59;;;;;;;5.20;2.67;;;20.90;99.50;;;;;;10097771;28;20544;-78
2023/10/12 05:16:03;;;;;;;5.68;2.40;;;20.90;99.50;;;;;;10097988;28;20029;-77
2023/10/12 05:20:54;;;;;;;4.82;2.88;;;20.80;99.60;;;;;;10097962;28;20479;-79
2023/10/12 05:25:48;;;;;;;5.82;2.45;;;20.70;99.50;;;;;;10091720;28;20108;-79
2023/10/12 05:30:38;;;;;;;5.50;2.45;;;20.80;99.50;;;;;;10081507;28;20324;-79
2023/10/12 05:40:55;;;;;;;8.05;4.28;;;20.80;99.40;;;;;;10069802;28;20347;-79
2023/10/12 05:45:46;;;;;;;5.32;2.45;;;20.70;99.40;;;;;;10080114;28;20037;-78
2023/10/12 05:50:39;;;;;;;5.75;2.28;;;20.70;99.40;;;;;;10097155;28;20033;-78
2023/10/12 05:55:33;;;;;;;4.30;2.72;;;20.70;99.40;;;;;;10097339;28;20067;-79
2023/10/12 06:00:36;;;;;;;7.30;2.93;;;20.70;99.40;;;;;;10093777;28;20029;-77
2023/10/12 06:05:27;;;;;;;5.93;2.63;;;20.70;99.30;;;;;;10092453;28;20268;-78
2023/10/12 06:10:18;;;;;;;7.75;3.25;;;20.70;99.30;;;;;;10093146;28;20052;-77
2023/10/12 06:15:10;;;;;;;4.88;3.35;;;20.70;99.30;;;;;;10089682;28;20077;-76
2023/10/12 06:20:11;;;;;;;6.97;2.75;;;20.80;99.20;;;;;;10074719;28;20025;-77
2023/10/12 06:25:04;;;;;;;5.07;2.88;;;20.70;99.20;;;;;;10069189;28;20021;-78
2023/10/12 06:29:55;;;;;;;6.00;2.50;;;20.70;99.20;;;;;;10104810;28;20049;-77
2023/10/12 06:35:12;;;;;;;7.35;3.10;;;20.70;99.20;;;;;;10097251;28;20035;-76
2023/10/12 06:45:20;;;;;;;6.55;2.90;;;20.80;99.10;;;;;;10071421;28;20358;-81
2023/10/12 06:50:20;;;;;;;6.32;2.80;;;20.80;99.00;;;;;;10098544;28;20037;-82
2023/10/12 06:55:21;;;;;;;6.85;3.53;;;20.80;99.00;;;;;;10105878;28;20029;-81
2023/10/12 07:05:04;;;;;;;8.20;4.03;;;20.80;99.00;;;;;;10115665;28;20028;-87
2023/10/12 07:10:13;;;;;;;5.95;3.22;;;20.90;99.00;;;;;;10112747;28;20407;-82
2023/10/12 07:15:11;;;;;;;6.93;3.35;;;20.90;99.00;;;;;;10113540;28;20089;-92
2023/10/12 07:20:07;;;;;;;8.18;3.50;;;21.00;99.00;;;;;;10095911;28;20040;-85
2023/10/12 07:24:57;;;;;;;6.05;3.50;;;20.90;99.00;;;;;;10089202;28;20498;-81
2023/10/12 07:30:02;;;;;;;8.20;3.28;;;20.90;99.00;;;;;;10098664;28;20045;-79
2023/10/12 07:34:58;;;;;;;5.97;3.10;;;20.90;99.00;;;;;;10103679;28;20029;-79
2023/10/12 07:39:51;;;;;;;6.43;3.58;;;20.90;99.10;;;;;;10098688;28;20025;-82
2023/10/12 07:44:42;;;;;;;5.18;3.25;;;20.90;99.10;;;;;;10101974;28;20562;-81
2023/10/12 08:04:59;;;;;;;8.50;3.50;;;20.90;99.10;;;;;;10039984;28;20037;-82
2023/10/12 08:09:51;;;;;;;5.90;3.58;;;20.90;99.20;;;;;;10099743;28;20048;-81
2023/10/12 08:14:42;;;;;;;6.00;3.97;;;20.80;99.20;;;;;;10097093;28;20047;-82
2023/10/12 08:19:39;;;;;;;6.60;3.10;;;20.90;99.30;;;;;;10099594;28;20070;-75
2023/10/12 08:24:36;;;;;;;7.40;3.20;;;21.00;99.20;;;;;;10094857;28;20063;-75
2023/10/12 08:39:36;;;;;;;10.25;4.53;;;21.20;99.30;;;;;;10096990;28;20037;-75
2023/10/12 08:44:27;;;;;;;5.78;3.20;;;21.20;99.30;;;;;;10098572;28;20028;-77
2023/10/12 08:54:28;;;;;;;6.65;3.33;;;21.30;99.30;;;;;;10097449;28;20524;-74
2023/10/12 08:59:19;;;;;;;7.50;4.07;;;21.30;99.40;;;;;;10093428;28;20203;-78
2023/10/12 09:04:12;;;;;;;6.18;3.05;;;21.40;99.40;;;;;;10070341;28;20122;-75
2023/10/12 09:09:04;;;;;;;8.15;3.28;;;21.40;99.40;;;;;;10092849;28;20505;-78
2023/10/12 09:13:57;;;;;;;6.00;3.05;;;21.40;99.50;;;;;;10094350;28;20043;-75
2023/10/12 09:18:50;;;;;;;14.82;4.82;;;21.50;99.50;;;;;;10095669;28;20379;-76
2023/10/12 09:23:47;;;;;;;7.05;3.38;;;21.50;99.60;;;;;;10088364;28;20025;-75
2023/10/12 09:38:47;;;;;;;8.73;3.20;;;21.60;99.70;;;;;;10053875;28;20095;-75
2023/10/12 09:43:40;;;;;;;5.88;2.95;;;21.60;99.70;;;;;;10089313;28;20035;-75
2023/10/12 09:48:38;;;;;;;5.13;2.65;;;21.70;99.80;;;;;;10097069;28;20063;-77
2023/10/12 09:53:41;;;;;;;5.25;3.22;;;21.80;99.80;;;;;;10096788;28;20071;-77
2023/10/12 09:58:34;;;;;;;6.35;3.50;;;21.80;99.80;;;;;;10097604;28;20128;-78
2023/10/12 10:03:34;;;;;;;10.60;3.45;;;21.90;99.90;;;;;;10095306;28;20078;-76
2023/10/12 10:08:29;;;;;;;8.13;3.90;;;21.90;99.90;;;;;;10079789;28;20041;-76
2023/10/12 10:13:41;;;;;;;6.80;3.73;;;22.00;99.90;;;;;;10096813;28;20028;-78
2023/10/12 10:18:48;;;;;;;6.82;4.00;;;22.00;99.90;;;;;;10096475;28;20051;-78
2023/10/12 10:23:48;;;;;;;8.95;3.38;;;22.00;99.90;;;;;;10097035;28;20025;-76
2023/10/12 10:28:45;;;;;;;6.75;3.55;;;22.00;99.90;;;;;;10095037;28;20056;-76
2023/10/12 10:33:39;;;;;;;6.15;3.50;;;22.00;99.90;;;;;;10104342;28;20032;-75
2023/10/12 10:38:34;;;;;;;9.43;3.38;;;22.00;99.90;;;;;;10103930;28;20056;-75
2023/10/12 10:43:24;;;;;;;9.90;4.93;;;22.10;99.90;;;;;;10085938;28;20441;-76
2023/10/12 10:48:16;;;;;;;6.18;4.30;;;22.10;99.90;;;;;;10086136;28;20049;-79
2023/10/12 10:53:08;;;;;;;5.55;3.78;;;22.20;99.90;;;;;;10103134;28;20033;-71
2023/10/12 10:58:00;;;;;;;8.27;3.17;;;22.30;99.90;;;;;;10094458;28;20025;-72
2023/10/12 11:02:52;;;;;;;7.50;3.60;;;22.40;99.90;;;;;;10102186;28;20033;-72
2023/10/12 11:07:50;;;;;;;6.55;3.65;;;22.40;99.90;;;;;;10097656;28;20036;-72
2023/10/12 11:12:42;;;;;;;6.22;3.20;;;22.40;99.90;;;;;;10098658;28;20033;-76
2023/10/12 11:17:49;;;;;;;8.15;3.55;;;22.50;99.90;;;;;;10078398;28;20026;-75
2023/10/12 11:22:42;;;;;;;6.45;3.40;;;22.50;99.90;;;;;;10095761;28;20044;-76
2023/10/12 11:27:34;;;;;;;9.20;3.47;;;22.50;99.90;;;;;;10088633;28;20553;-74
2023/10/12 11:32:26;;;;;;;4.78;3.28;;;22.50;99.90;;;;;;10097762;28;20045;-76
2023/10/12 11:37:16;;;;;;;6.07;2.85;;;22.50;99.90;;;;;;10088121;28;20037;-76
2023/10/12 11:42:08;;;;;;;7.75;3.30;;;22.50;99.90;;;;;;10072908;28;20037;-75
2023/10/12 11:47:00;;;;;;;6.47;3.40;;;22.50;99.90;;;;;;10095394;28;20522;-76
2023/10/12 11:51:52;;;;;;;8.65;3.70;;;22.50;99.90;;;;;;10091810;28;21408;-75
2023/10/12 11:56:43;;;;;;;8.13;3.40;;;22.50;99.90;;;;;;10089954;28;20036;-76
2023/10/12 12:01:34;;;;;;;7.90;3.92;;;22.50;99.90;;;;;;10084404;28;20162;-76
2023/10/12 12:06:26;;;;;;;8.13;4.03;;;22.60;99.90;;;;;;10087897;28;20643;-77
2023/10/12 12:11:21;;;;;;;7.40;3.65;;;22.60;99.90;;;;;;10094886;28;20594;-75
2023/10/12 12:16:12;;;;;;;8.07;4.03;;;22.50;99.90;;;;;;10092051;28;20041;-75
2023/10/12 12:21:14;;;;;;;6.68;3.20;;;22.60;99.90;;;;;;10099930;28;20108;-78
2023/10/12 12:26:07;;;;;;;8.95;3.08;;;22.50;99.90;;;;;;10095730;28;20033;-77
2023/10/12 12:31:00;;;;;;;4.85;2.95;;;22.70;99.80;;;;;;10100060;28;20545;-74
2023/10/12 12:35:59;;;;;;;7.68;3.40;;;22.70;99.80;;;;;;10094947;28;20025;-76
2023/10/12 12:40:52;;;;;;;4.97;3.00;;;22.60;99.70;;;;;;10099216;28;20031;-74
2023/10/12 12:45:42;;;;;;;8.57;4.18;;;22.70;99.70;;;;;;10098693;28;20025;-74
2023/10/12 12:50:33;;;;;;;6.97;3.83;;;22.70;99.70;;;;;;10098710;28;20033;-74
2023/10/12 12:55:30;;;;;;;6.35;3.15;;;22.70;99.70;;;;;;10099019;28;20036;-75
2023/10/12 13:00:21;;;;;;;7.32;3.40;;;22.70;99.70;;;;;;10100920;28;20084;-76
2023/10/12 13:05:12;;;;;;;6.88;4.03;;;22.70;99.90;;;;;;10097462;28;20094;-78
2023/10/12 13:10:06;;;;;;;9.98;3.70;;;22.80;99.70;;;;;;10089176;28;20037;-74
2023/10/12 13:15:00;;;;;;;5.53;3.37;;;22.90;99.60;;;;;;10097797;28;20510;-75
2023/10/12 13:19:51;;;;;;;6.73;3.13;;;22.90;99.60;;;;;;10097703;28;20568;-78
2023/10/12 13:24:42;;;;;;;6.55;3.90;;;23.00;99.50;;;;;;10084250;28;20029;-74
2023/10/12 13:29:33;;;;;;;5.63;3.70;;;23.00;99.40;;;;;;10094318;28;20177;-74
2023/10/12 13:34:24;;;;;;;7.30;4.13;;;23.10;99.40;;;;;;10092671;28;20091;-74
2023/10/12 13:39:14;;;;;;;9.05;3.83;;;23.10;99.30;;;;;;10087319;28;20400;-74
2023/10/12 13:44:05;;;;;;;5.63;3.17;;;23.10;99.20;;;;;;10094344;28;20104;-75
2023/10/12 13:48:56;;;;;;;5.70;2.97;;;23.20;99.10;;;;;;10077141;28;20449;-74
2023/10/12 13:53:49;;;;;;;6.90;3.15;;;23.30;98.90;;;;;;10096886;28;20371;-74
2023/10/12 13:58:41;;;;;;;5.78;3.38;;;23.40;98.80;;;;;;10095657;28;20033;-73
2023/10/12 14:03:34;;;;;;;6.40;2.97;;;23.40;98.70;;;;;;10094881;28;20482;-72
2023/10/12 14:08:28;;;;;;;7.78;4.45;;;23.50;98.60;;;;;;10096412;28;20049;-73
2023/10/12 14:13:20;;;;;;;4.78;3.47;;;23.50;98.60;;;;;;10096238;28;20499;-74
2023/10/12 14:18:16;;;;;;;7.00;3.13;;;23.50;98.40;;;;;;10096169;28;20115;-74
2023/10/12 14:23:06;;;;;;;6.30;2.65;;;23.40;98.40;;;;;;10095271;28;20029;-74
2023/10/12 14:28:00;;;;;;;5.63;3.30;;;23.40;98.70;;;;;;10086701;28;20128;-75
2023/10/12 14:32:51;;;;;;;4.95;3.03;;;23.30;98.40;;;;;;10092765;28;20036;-74
2023/10/12 14:37:41;;;;;;;5.70;3.10;;;23.30;98.40;;;;;;10093695;28;20040;-74
2023/10/12 14:42:36;;;;;;;8.02;4.13;;;23.30;98.30;;;;;;10092526;28;20083;-74
2023/10/12 14:47:27;;;;;;;7.75;3.53;;;23.30;98.30;;;;;;10097205;28;20094;-77
2023/10/12 14:52:17;;;;;;;5.00;2.95;;;23.30;98.20;;;;;;10095680;28;20039;-74
2023/10/12 14:57:10;;;;;;;7.57;3.08;;;23.20;98.20;;;;;;10095197;28;20037;-75
2023/10/12 15:02:09;;;;;;;4.57;2.38;;;23.20;98.20;;;;;;10075291;28;20025;-79
2023/10/12 15:07:00;;;;;;;6.72;3.00;;;23.20;98.20;;;;;;10094986;28;20028;-77
2023/10/12 15:11:51;;;;;;;9.88;3.20;;;23.20;98.20;;;;;;10099616;28;20021;-77
2023/10/12 15:16:42;;;;;;;9.55;3.85;;;23.10;98.30;;;;;;10084861;28;20044;-77
2023/10/12 15:21:34;;;;;;;9.20;4.00;;;23.10;98.00;;;;;;10101667;28;20060;-76
2023/10/12 15:26:24;;;;;;;7.75;3.10;;;23.20;98.30;;;;;;10062960;28;20112;-77
2023/10/12 15:31:18;;;;;;;6.55;3.58;;;23.20;98.30;;;;;;10101255;28;20472;-74
2023/10/12 15:36:15;;;;;;;8.60;4.32;;;23.20;98.20;;;;;;10081599;28;20439;-78
2023/10/12 15:41:06;;;;;;;9.23;3.28;;;23.30;98.20;;;;;;10100923;28;20467;-74
2023/10/12 15:45:57;;;;;;;6.47;2.58;;;23.30;98.10;;;;;;10101731;28;20120;-73
2023/10/12 15:50:47;;;;;;;7.97;2.85;;;23.40;97.80;;;;;;10100548;28;20047;-74
2023/10/12 15:55:43;;;;;;;5.95;2.53;;;23.40;97.60;;;;;;10098154;28;20051;-73
2023/10/12 16:00:33;;;;;;;3.55;2.42;;;23.50;97.40;;;;;;10082883;28;20040;-75
2023/10/12 16:05:28;;;;;;;3.38;2.08;;;23.60;97.10;;;;;;10099458;28;20380;-75
2023/10/12 16:10:19;;;;;;;;;;;23.60;96.90;;;;;;10100730;28;20320;-75
2023/10/12 16:15:12;;;;;;;6.20;2.17;;;23.60;96.30;;;;;;10082929;28;19948;-75
2023/10/12 16:20:09;;;;;;;4.93;2.30;;;23.60;96.60;;;;;;10099456;28;20104;-76
2023/10/12 16:25:06;;;;;;;3.90;2.60;;;23.60;96.30;;;;;;10099193;28;20029;-73
2023/10/12 16:29:57;;;;;;;12.52;3.88;;;23.60;96.10;;;;;;10079598;28;20199;-74
2023/10/12 16:34:49;;;;;;;5.50;2.65;;;23.60;95.90;;;;;;10083388;28;20176;-74
2023/10/12 16:39:40;;;;;;;5.25;2.63;;;23.60;95.80;;;;;;10078345;28;20049;-73
2023/10/12 16:44:31;;;;;;;3.88;2.60;;;23.50;95.70;;;;;;10099638;28;20079;-73
2023/10/12 16:49:22;;;;;;;4.90;2.78;;;23.50;95.70;;;;;;10098825;28;20039;-81
2023/10/12 16:54:13;;;;;;;6.18;2.50;;;23.40;95.60;;;;;;10107729;28;20028;-79
2023/10/12 16:59:07;;;;;;;4.35;2.25;;;23.40;95.60;;;;;;10099097;28;20112;-77
2023/10/12 17:04:00;;;;;;;5.30;2.83;;;23.50;95.50;;;;;;10098175;28;20033;-79
2023/10/12 17:08:51;;;;;;;5.28;2.88;;;23.50;95.40;;;;;;10077733;28;20087;-73
2023/10/12 17:13:42;;;;;;;6.25;3.65;;;23.40;95.40;;;;;;10097953;28;20108;-73
2023/10/12 17:18:34;;;;;;;5.95;2.95;;;23.40;95.50;;;;;;10097428;28;20143;-75
2023/10/12 17:23:28;;;;;;;5.55;2.95;;;23.40;95.40;;;;;;10098426;28;20123;-72
2023/10/12 17:28:19;;;;;;;5.47;3.40;;;23.40;95.40;;;;;;10092957;28;20052;-75
2023/10/12 17:33:10;;;;;;;8.15;3.45;;;23.40;95.50;;;;;;10096511;28;20032;-73
2023/10/12 17:38:02;;;;;;;9.57;4.28;;;23.30;95.50;;;;;;10072060;28;20040;-75
2023/10/12 17:42:52;;;;;;;9.75;5.15;;;23.30;95.50;;;;;;10091979;28;20483;-73
2023/10/12 17:47:45;;;;;;;10.95;4.15;;;23.30;95.60;;;;;;10086743;28;20038;-75
2023/10/12 17:52:36;;;;;;;11.05;4.47;;;23.30;95.60;;;;;;10080149;28;20017;-82
2023/10/12 17:57:27;;;;;;;7.97;3.75;;;23.30;95.70;;;;;;10077939;28;20151;-77
2023/10/12 18:02:20;;;;;;;7.32;4.35;;;23.30;95.70;;;;;;10069575;28;20030;-76
2023/10/12 18:07:11;;;;;;;9.07;4.57;;;23.30;95.70;;;;;;10089906;28;20037;-75
2023/10/12 18:12:02;;;;;;;8.80;4.18;;;23.30;95.70;;;;;;10092882;28;20021;-76
2023/10/12 18:16:53;;;;;;;8.63;4.32;;;23.30;95.70;;;;;;10091986;28;20103;-79
2023/10/12 18:21:44;;;;;;;7.65;4.53;;;23.30;95.70;;;;;;10093241;28;20017;-78
2023/10/12 18:26:35;;;;;;;7.93;4.78;;;23.20;95.80;;;;;;10087929;28;20037;-81
2023/10/12 18:31:26;;;;;;;12.57;5.70;;;23.20;95.80;;;;;;10095390;28;20072;-82
2023/10/12 18:36:17;;;;;;;12.15;5.03;;;23.20;95.90;;;;;;10095217;28;20028;-83
2023/10/12 18:41:15;;;;;;;9.60;5.00;;;23.20;96.00;;;;;;10097588;28;20433;-79
2023/10/12 18:46:07;;;;;;;10.77;7.13;;;23.10;96.10;;;;;;10094787;28;20032;-73
2023/10/12 18:51:09;;;;;;;15.75;6.75;;;23.10;96.20;;;;;;10105544;28;20083;-77
2023/10/12 18:56:06;;;;;;;11.57;6.53;;;23.10;96.40;;;;;;10101707;28;20029;-73
2023/10/12 19:01:00;;;;;;;15.73;7.90;;;23.10;96.50;;;;;;10101346;28;20086;-80
2023/10/12 19:05:51;;;;;;;11.95;6.55;;;23.10;96.60;;;;;;10100996;28;20021;-76
2023/10/12 19:10:41;;;;;;;13.82;7.03;;;23.00;96.60;;;;;;10102782;28;20045;-77
2023/10/12 19:15:33;;;;;;;11.57;6.43;;;23.00;96.60;;;;;;10084985;28;20025;-77
2023/10/12 19:20:24;;;;;;;11.07;6.75;;;23.00;96.70;;;;;;10100180;28;20025;-77
2023/10/12 19:25:15;;;;;;;17.10;7.78;;;23.10;96.80;;;;;;10103984;28;20035;-76
2023/10/12 19:30:09;;;;;;;16.50;7.80;;;23.00;96.80;;;;;;10101808;28;20071;-78
2023/10/12 19:35:00;;;;;;;22.15;7.22;;;23.00;96.90;;;;;;10101429;28;20458;-78
2023/10/12 19:39:51;;;;;;;11.88;7.22;;;23.00;97.00;;;;;;10094892;22;20156;-74
2023/10/12 19:44:43;;;;;;;8.90;5.88;;;23.00;97.10;;;;;;10060947;28;20156;-75
2023/10/12 19:49:34;;;;;;;11.35;5.20;;;23.00;97.10;;;;;;10060383;28;20052;-75
2023/10/12 19:54:25;;;;;;;10.50;4.97;;;23.00;97.10;;;;;;10059940;28;20066;-74
2023/10/12 19:59:21;;;;;;;7.22;4.30;;;23.00;97.00;;;;;;10053586;28;20137;-75
2023/10/12 20:04:20;;;;;;;10.65;4.10;;;23.00;97.10;;;;;;10053568;28;20026;-74
2023/10/12 20:09:26;;;;;;;8.35;4.03;;;23.00;97.10;;;;;;10057572;28;20529;-75
2023/10/12 20:14:17;;;;;;;5.97;3.50;;;23.00;97.10;;;;;;10057025;28;20041;-76
2023/10/12 20:19:11;;;;;;;8.07;3.75;;;23.00;97.10;;;;;;10057454;28;20121;-75
2023/10/12 20:24:03;;;;;;;7.75;3.40;;;23.00;97.00;;;;;;10039378;28;20029;-74
2023/10/12 20:28:57;;;;;;;7.30;3.55;;;23.00;97.00;;;;;;10054238;28;20455;-75
2023/10/12 20:33:48;;;;;;;5.60;3.70;;;23.00;97.10;;;;;;10059691;28;20455;-76
2023/10/12 20:38:38;;;;;;;8.90;3.60;;;23.00;97.00;;;;;;10053220;28;20128;-76
2023/10/12 20:43:29;;;;;;;5.57;2.75;;;23.00;97.00;;;;;;10065609;28;20104;-76
2023/10/12 20:48:20;;;;;;;5.70;2.90;;;23.00;97.00;;;;;;10058749;28;20495;-76
2023/10/12 20:53:15;;;;;;;7.28;2.97;;;23.00;97.00;;;;;;10041010;28;20513;-75
2023/10/12 20:58:14;;;;;;;6.80;3.08;;;23.00;97.00;;;;;;10055507;28;20475;-73
2023/10/12 21:03:10;;;;;;;5.85;2.88;;;23.00;97.00;;;;;;10057535;28;20033;-73
2023/10/12 21:08:00;;;;;;;6.35;3.30;;;23.00;96.90;;;;;;10057722;28;20447;-74
2023/10/12 21:12:51;;;;;;;4.47;2.80;;;23.00;96.90;;;;;;10040763;28;20040;-73
2023/10/12 21:17:43;;;;;;;6.55;3.85;;;23.00;96.90;;;;;;10057942;28;20038;-75
2023/10/12 21:22:34;;;;;;;4.68;2.95;;;23.00;96.90;;;;;;10046007;28;20403;-74
2023/10/12 21:27:47;;;;;;;6.75;3.28;;;22.90;96.90;;;;;;10044366;28;20037;-74
2023/10/12 21:32:39;;;;;;;4.97;3.05;;;22.90;96.90;;;;;;10053004;28;20092;-75
2023/10/12 21:37:32;;;;;;;5.70;3.07;;;23.00;96.80;;;;;;10056014;28;20479;-76
2023/10/12 21:42:23;;;;;;;9.70;3.35;;;23.00;96.80;;;;;;10060601;28;20061;-74
2023/10/12 21:47:13;;;;;;;7.40;3.35;;;22.90;96.80;;;;;;10057123;28;20072;-74
2023/10/12 21:52:07;;;;;;;7.50;2.78;;;22.90;96.80;;;;;;10053601;28;20030;-74
2023/10/12 21:56:59;;;;;;;5.17;2.70;;;22.80;96.70;;;;;;10056952;28;20136;-74
2023/10/12 22:01:50;;;;;;;7.05;3.05;;;22.90;96.60;;;;;;10037897;28;20577;-76
2023/10/12 22:06:41;;;;;;;6.68;3.17;;;22.90;96.60;;;;;;10052353;28;20037;-75
2023/10/12 22:11:39;;;;;;;9.88;3.60;;;22.90;96.60;;;;;;10055991;28;20033;-73
2023/10/12 22:16:40;;;;;;;7.32;2.75;;;22.80;96.60;;;;;;10056215;28;20059;-74
2023/10/12 22:21:31;;;;;;;4.70;2.35;;;22.90;96.60;;;;;;10055649;28;20061;-74
2023/10/12 22:26:24;;;;;;;6.85;2.83;;;22.80;96.60;;;;;;10047293;28;20038;-76
2023/10/12 22:31:18;;;;;;;6.82;3.58;;;22.80;96.50;;;;;;10049883;28;20491;-75
2023/10/12 22:36:11;;;;;;;6.32;2.90;;;22.80;96.50;;;;;;10058390;28;20115;-75
2023/10/12 22:41:04;;;;;;;7.22;2.85;;;22.70;96.60;;;;;;10062615;28;20041;-75
2023/10/12 22:45:55;;;;;;;7.30;2.70;;;22.60;96.50;;;;;;10054740;28;20029;-75
2023/10/12 22:50:45;;;;;;;7.43;2.30;;;22.50;96.50;;;;;;10052327;28;20128;-75
2023/10/12 22:55:37;;;;;;;6.85;2.40;;;22.40;96.50;;;;;;10055790;28;20041;-75
2023/10/12 23:00:31;;;;;;;5.28;2.42;;;22.40;96.50;;;;;;10055075;28;20156;-76
2023/10/12 23:05:25;;;;;;;5.50;2.13;;;22.40;96.40;;;;;;10054432;28;20460;-74
2023/10/12 23:10:17;;;;;;;4.03;2.47;;;22.30;96.30;;;;;;10055234;28;20069;-74
2023/10/12 23:15:11;;;;;;;4.07;2.83;;;22.30;96.30;;;;;;10056648;28;20034;-75
2023/10/12 23:20:15;;;;;;;6.43;2.30;;;22.20;96.20;;;;;;10054999;28;20060;-75
2023/10/12 23:25:06;;;;;;;5.45;2.38;;;22.20;96.20;;;;;;10055120;28;20029;-76
2023/10/12 23:29:57;;;;;;;7.82;2.40;;;22.10;96.20;;;;;;10063867;28;20133;-75
2023/10/12 23:34:52;;;;;;;6.18;2.78;;;22.10;96.10;;;;;;10043940;28;20026;-73
2023/10/12 23:39:46;;;;;;;4.07;2.20;;;22.10;96.10;;;;;;10058716;28;20049;-76
2023/10/12 23:44:53;;;;;;;6.28;2.15;;;22.10;96.10;;;;;;10069835;28;20388;-75
2023/10/12 23:55:08;;;;;;;6.70;2.38;;;21.90;96.40;;;;;;10059440;28;20022;-74
2023/10/12 23:59:59;;;;;;;4.60;2.75;;;21.90;96.20;;;;;;10043074;28;20033;-75
